createdAt,value
2022-10-21T00:00:54.791Z,75.54
2022-10-21T00:03:23.076Z,75.82
2022-10-21T00:05:50.795Z,76.00
2022-10-21T00:08:19.036Z,76.43
2022-10-21T00:10:46.683Z,75.67
2022-10-21T00:13:13.820Z,75.26
2022-10-21T00:15:40.849Z,75.22
2022-10-21T00:18:07.940Z,75.40
2022-10-21T00:20:37.445Z,75.44
2022-10-21T00:23:06.834Z,75.52
2022-10-21T00:25:34.086Z,75.02
2022-10-21T00:28:01.195Z,75.61
2022-10-21T00:30:28.217Z,75.50
2022-10-21T00:32:58.128Z,76.17
2022-10-21T00:35:27.745Z,75.94
2022-10-21T00:37:54.772Z,75.86
2022-10-21T00:40:21.902Z,75.39
2022-10-21T00:42:49.164Z,75.41
2022-10-21T00:45:24.996Z,75.05
2022-10-21T00:48:09.463Z,75.59
2022-10-21T00:51:05.709Z,75.53
2022-10-21T00:53:35.695Z,75.77
2022-10-21T00:56:13.997Z,75.55
2022-10-21T00:58:44.047Z,75.41
2022-10-21T01:01:11.290Z,75.45
2022-10-21T01:03:38.486Z,75.54
2022-10-21T01:06:09.429Z,75.26
2022-10-21T01:08:39.805Z,75.40
2022-10-21T01:11:16.301Z,75.29
2022-10-21T01:13:56.079Z,75.70
2022-10-21T01:16:34.860Z,75.67
2022-10-21T01:19:23.871Z,75.20
2022-10-21T01:21:58.649Z,75.34
2022-10-21T01:24:25.656Z,75.40
2022-10-21T01:27:41.608Z,75.21
2022-10-21T01:30:11.857Z,75.68
2022-10-21T01:32:50.169Z,75.18
2022-10-21T01:35:21.816Z,75.52
2022-10-21T01:37:56.299Z,75.05
2022-10-21T01:41:00.893Z,75.19
2022-10-21T01:43:38.085Z,75.29
2022-10-21T01:46:17.084Z,74.37
2022-10-21T01:48:52.051Z,74.75
2022-10-21T01:51:21.087Z,74.88
2022-10-21T01:53:58.982Z,75.09
2022-10-21T01:56:27.039Z,75.04
2022-10-21T01:58:55.255Z,75.28
2022-10-21T02:01:23.437Z,75.25
2022-10-21T02:03:55.651Z,75.45
2022-10-21T02:06:22.831Z,75.07
2022-10-21T02:08:50.092Z,75.13
2022-10-21T02:11:19.410Z,75.24
2022-10-21T02:13:59.714Z,75.16
2022-10-21T02:16:39.342Z,75.24
2022-10-21T02:19:17.645Z,75.05
2022-10-21T02:21:47.389Z,75.17
2022-10-21T02:24:28.895Z,75.04
2022-10-21T02:26:56.173Z,74.66
2022-10-21T02:29:29.355Z,74.81
2022-10-21T02:32:17.753Z,75.18
2022-10-21T02:35:06.725Z,75.00
2022-10-21T02:37:45.796Z,74.92
2022-10-21T02:40:21.698Z,74.39
2022-10-21T02:42:54.497Z,74.56
2022-10-21T02:45:22.793Z,74.29
2022-10-21T02:47:50.989Z,74.63
2022-10-21T02:50:18.099Z,74.36
2022-10-21T02:52:45.194Z,74.39
2022-10-21T02:55:12.739Z,74.67
2022-10-21T02:57:40.165Z,74.19
2022-10-21T03:00:08.216Z,74.37
2022-10-21T03:02:35.504Z,74.58
2022-10-21T03:05:02.692Z,74.77
2022-10-21T03:07:29.790Z,74.29
2022-10-21T03:09:56.956Z,74.55
2022-10-21T03:12:24.139Z,74.53
2022-10-21T03:14:51.152Z,74.57
2022-10-21T03:17:21.554Z,74.45
2022-10-21T03:19:51.442Z,74.67
2022-10-21T03:22:18.508Z,74.50
2022-10-21T03:24:45.645Z,74.57
2022-10-21T03:27:12.746Z,74.20
2022-10-21T03:29:39.862Z,73.98
2022-10-21T03:32:06.985Z,74.20
2022-10-21T03:34:34.051Z,73.61
2022-10-21T03:37:01.073Z,73.48
2022-10-21T03:39:28.065Z,74.29
2022-10-21T03:41:55.155Z,73.63
2022-10-21T03:44:22.365Z,73.84
2022-10-21T03:46:49.410Z,73.94
2022-10-21T03:49:21.152Z,73.72
2022-10-21T03:51:49.599Z,74.00
2022-10-21T03:54:17.335Z,73.87
2022-10-21T03:56:44.723Z,74.12
2022-10-21T03:59:11.900Z,74.33
2022-10-21T04:01:39.145Z,73.78
2022-10-21T04:04:06.301Z,74.08
2022-10-21T04:06:33.474Z,73.75
2022-10-21T04:09:00.775Z,74.06
2022-10-21T04:11:28.022Z,73.73
2022-10-21T04:13:55.160Z,73.74
2022-10-21T04:16:23.079Z,74.03
2022-10-21T04:18:50.646Z,73.71
2022-10-21T04:21:17.829Z,73.80
2022-10-21T04:23:45.029Z,73.75
2022-10-21T04:26:12.660Z,73.86
2022-10-21T04:28:39.700Z,73.79
2022-10-21T04:31:06.881Z,74.26
2022-10-21T04:33:34.188Z,73.51
2022-10-21T04:36:01.305Z,73.73
2022-10-21T04:38:28.816Z,74.15
2022-10-21T04:41:00.381Z,73.99
2022-10-21T04:43:28.703Z,74.25
2022-10-21T04:45:56.193Z,74.14
2022-10-21T04:48:23.737Z,74.06
2022-10-21T04:50:52.254Z,74.04
2022-10-21T04:53:19.673Z,74.07
2022-10-21T04:55:50.430Z,73.20
2022-10-21T04:58:20.930Z,73.94
2022-10-21T05:00:50.310Z,73.85
2022-10-21T05:03:17.706Z,73.17
2022-10-21T05:05:44.759Z,73.00
2022-10-21T05:08:11.939Z,72.97
2022-10-21T05:10:39.087Z,73.19
2022-10-21T05:13:06.533Z,73.00
2022-10-21T05:15:34.659Z,73.15
2022-10-21T05:18:01.683Z,73.23
2022-10-21T05:20:28.883Z,73.17
2022-10-21T05:22:56.325Z,73.14
2022-10-21T05:25:23.965Z,72.85
2022-10-21T05:27:51.302Z,72.28
2022-10-21T05:30:18.534Z,72.65
2022-10-21T05:32:45.574Z,72.78
2022-10-21T05:35:12.815Z,72.64
2022-10-21T05:37:39.958Z,72.70
2022-10-21T05:40:07.806Z,72.60
2022-10-21T05:42:34.982Z,72.76
2022-10-21T05:45:02.079Z,72.77
2022-10-21T05:47:29.181Z,72.79
2022-10-21T05:49:56.346Z,73.14
2022-10-21T05:52:23.456Z,72.55
2022-10-21T05:54:50.572Z,72.23
2022-10-21T05:57:17.715Z,72.64
2022-10-21T05:59:47.756Z,72.66
2022-10-21T06:02:14.919Z,72.31
2022-10-21T06:04:41.868Z,72.62
2022-10-21T06:07:09.117Z,72.53
2022-10-21T06:09:38.127Z,72.30
2022-10-21T06:12:05.424Z,72.47
2022-10-21T06:14:32.620Z,72.41
2022-10-21T06:16:59.760Z,72.26
2022-10-21T06:19:26.816Z,72.40
2022-10-21T06:21:54.703Z,72.42
2022-10-21T06:24:22.388Z,72.53
2022-10-21T06:26:51.283Z,72.46
2022-10-21T06:29:18.802Z,72.13
2022-10-21T06:31:46.232Z,72.55
2022-10-21T06:34:13.360Z,72.70
2022-10-21T06:36:40.423Z,72.33
2022-10-21T06:39:09.086Z,72.25
2022-10-21T06:41:36.115Z,72.20
2022-10-21T06:44:03.111Z,72.35
2022-10-21T06:46:30.078Z,72.54
2022-10-21T06:48:57.117Z,72.36
2022-10-21T06:51:25.269Z,72.15
2022-10-21T06:53:55.270Z,72.26
2022-10-21T06:56:23.813Z,72.28
2022-10-21T06:58:51.791Z,72.10
2022-10-21T07:01:33.473Z,71.89
2022-10-21T07:04:02.476Z,71.51
2022-10-21T07:06:29.645Z,71.73
2022-10-21T07:08:58.850Z,71.93
2022-10-21T07:11:27.164Z,71.61
2022-10-21T07:13:54.340Z,71.72
2022-10-21T07:16:30.067Z,72.12
2022-10-21T07:18:57.491Z,71.86
2022-10-21T07:21:29.277Z,71.60
2022-10-21T07:23:59.391Z,71.63
2022-10-21T07:26:29.476Z,71.62
2022-10-21T07:29:00.793Z,71.49
2022-10-21T07:31:31.218Z,71.18
2022-10-21T07:34:00.224Z,71.16
2022-10-21T07:36:30.240Z,70.83
2022-10-21T07:39:00.158Z,70.31
2022-10-21T07:41:31.246Z,70.01
2022-10-21T07:43:58.859Z,70.37
2022-10-21T07:46:26.136Z,69.49
2022-10-21T07:48:53.617Z,69.07
2022-10-21T07:51:26.933Z,68.70
2022-10-21T07:53:59.168Z,68.07
2022-10-21T07:56:30.177Z,68.41
2022-10-21T07:58:58.105Z,68.08
2022-10-21T08:01:25.921Z,67.92
2022-10-21T08:03:54.748Z,67.80
2022-10-21T08:06:22.762Z,67.42
2022-10-21T08:08:49.809Z,67.46
2022-10-21T08:11:31.166Z,66.49
2022-10-21T08:13:58.916Z,66.51
2022-10-21T08:16:27.282Z,66.92
2022-10-21T08:18:55.171Z,67.03
2022-10-21T08:21:22.145Z,67.36
2022-10-21T08:23:49.141Z,67.11
2022-10-21T08:26:16.606Z,67.04
2022-10-21T08:28:44.483Z,67.10
2022-10-21T08:31:15.145Z,66.42
2022-10-21T08:33:43.235Z,66.37
2022-10-21T08:36:15.408Z,66.25
2022-10-21T08:38:44.135Z,65.87
2022-10-21T08:41:24.862Z,65.89
2022-10-21T08:43:54.594Z,65.31
2022-10-21T08:46:26.802Z,65.75
2022-10-21T08:48:56.575Z,66.06
2022-10-21T08:51:29.510Z,65.71
2022-10-21T08:54:02.860Z,65.45
2022-10-21T08:56:31.762Z,65.73
2022-10-21T08:58:59.187Z,65.64
2022-10-21T09:01:55.735Z,65.33
2022-10-21T09:04:44.060Z,65.21
2022-10-21T09:07:17.516Z,65.36
2022-10-21T09:09:48.431Z,64.99
2022-10-21T09:12:22.436Z,64.29
2022-10-21T09:15:11.550Z,64.29
2022-10-21T09:18:04.798Z,64.41
2022-10-21T09:20:45.243Z,63.87
2022-10-21T09:23:56.788Z,63.09
2022-10-21T09:26:42.194Z,64.15
2022-10-21T09:29:25.898Z,64.33
2022-10-21T09:32:02.031Z,63.98
2022-10-21T09:34:44.208Z,63.76
2022-10-21T09:37:21.041Z,62.86
2022-10-21T09:39:54.514Z,63.07
2022-10-21T09:42:42.686Z,63.34
2022-10-21T09:45:26.448Z,63.12
2022-10-21T09:48:00.134Z,62.73
2022-10-21T09:50:29.176Z,63.29
2022-10-21T09:53:05.521Z,62.96
2022-10-21T09:55:32.735Z,63.22
2022-10-21T09:58:04.895Z,62.90
2022-10-21T10:00:50.464Z,62.87
2022-10-21T10:03:45.923Z,62.70
2022-10-21T10:06:13.322Z,62.10
2022-10-21T10:08:49.238Z,63.82
2022-10-21T10:11:22.035Z,63.12
2022-10-21T10:13:51.571Z,63.72
2022-10-21T10:16:32.871Z,62.68
2022-10-21T10:19:21.479Z,63.62
2022-10-21T10:22:10.372Z,63.21
2022-10-21T10:24:40.885Z,63.56
2022-10-21T10:27:23.676Z,63.21
2022-10-21T10:29:56.954Z,63.77
2022-10-21T10:32:27.113Z,63.98
2022-10-21T10:34:58.038Z,63.94
2022-10-21T10:37:26.265Z,63.60
2022-10-21T10:39:57.320Z,63.71
2022-10-21T10:42:27.677Z,64.44
2022-10-21T10:45:01.900Z,63.99
2022-10-21T10:47:33.609Z,64.17
2022-10-21T10:50:00.462Z,64.07
2022-10-21T10:52:27.416Z,64.38
2022-10-21T10:55:12.761Z,64.09
2022-10-21T10:57:44.570Z,64.45
2022-10-21T11:00:20.582Z,64.45
2022-10-21T11:03:10.192Z,65.10
2022-10-21T11:05:44.888Z,65.15
2022-10-21T11:08:27.979Z,65.08
2022-10-21T11:11:03.313Z,65.14
2022-10-21T11:13:30.604Z,65.09
2022-10-21T11:16:11.607Z,64.51
2022-10-21T11:19:01.922Z,63.99
2022-10-21T11:21:34.554Z,63.98
2022-10-21T11:24:33.980Z,64.11
2022-10-21T11:27:05.158Z,63.54
2022-10-21T11:30:10.250Z,63.72
2022-10-21T11:32:54.571Z,64.03
2022-10-21T11:35:36.474Z,64.27
2022-10-21T11:38:41.001Z,63.37
2022-10-21T11:41:31.177Z,63.44
2022-10-21T11:44:22.420Z,62.86
2022-10-21T11:47:16.618Z,62.76
2022-10-21T11:50:08.281Z,62.83
2022-10-21T11:52:58.289Z,63.36
2022-10-21T11:55:46.976Z,62.97
2022-10-21T11:58:13.911Z,62.82
2022-10-21T12:00:58.462Z,63.04
2022-10-21T12:03:47.711Z,62.73
2022-10-21T12:06:21.439Z,62.33
2022-10-21T12:08:57.827Z,62.26
2022-10-21T12:11:30.850Z,62.81
2022-10-21T12:14:25.619Z,62.80
2022-10-21T12:16:57.639Z,63.32
2022-10-21T12:19:26.272Z,63.42
2022-10-21T12:21:53.633Z,63.93
2022-10-21T12:24:42.526Z,62.83
2022-10-21T12:27:25.032Z,62.93
2022-10-21T12:30:13.332Z,62.56
2022-10-21T12:33:07.049Z,62.72
2022-10-21T12:35:55.071Z,61.71
2022-10-21T12:38:44.231Z,62.08
2022-10-21T12:41:30.070Z,62.17
2022-10-21T12:44:02.884Z,61.95
2022-10-21T12:46:34.828Z,62.29
2022-10-21T12:49:21.418Z,62.08
2022-10-21T12:52:12.017Z,61.39
2022-10-21T12:54:56.425Z,62.19
2022-10-21T12:57:30.931Z,62.57
2022-10-21T13:03:50.296Z,62.54
2022-10-21T13:06:21.239Z,62.90
2022-10-21T13:08:53.771Z,63.07
2022-10-21T13:11:38.249Z,62.14
2022-10-21T13:14:17.146Z,62.81
2022-10-21T13:16:44.335Z,62.05
2022-10-21T13:19:17.516Z,62.90
2022-10-21T13:21:47.695Z,63.16
2022-10-21T13:24:22.099Z,62.89
2022-10-21T13:26:51.305Z,63.49
2022-10-21T13:29:37.898Z,62.61
2022-10-21T13:32:22.082Z,62.69
2022-10-21T13:34:49.182Z,62.83
2022-10-21T13:37:24.447Z,62.78
2022-10-21T13:39:52.799Z,62.53
2022-10-21T13:42:24.110Z,62.74
2022-10-21T13:44:57.340Z,61.88
2022-10-21T13:47:35.594Z,62.72
2022-10-21T13:50:20.849Z,60.91
2022-10-21T13:52:47.921Z,62.03
2022-10-21T13:55:26.130Z,62.31
2022-10-21T13:57:57.510Z,62.35
2022-10-21T14:00:32.592Z,61.78
2022-10-21T14:03:05.761Z,62.18
2022-10-21T14:05:59.052Z,62.08
2022-10-21T14:08:34.642Z,62.55
2022-10-21T14:11:05.152Z,62.67
2022-10-21T14:13:36.311Z,62.29
2022-10-21T14:16:04.807Z,62.79
2022-10-21T14:18:37.088Z,62.42
2022-10-21T14:21:06.062Z,62.42
2022-10-21T14:23:34.844Z,62.53
2022-10-21T14:26:09.637Z,62.36
2022-10-21T14:28:38.037Z,63.06
2022-10-21T14:31:13.850Z,62.27
2022-10-21T14:33:46.275Z,62.57
2022-10-21T14:36:20.894Z,63.04
2022-10-21T14:38:50.407Z,62.89
2022-10-21T14:41:23.460Z,62.35
2022-10-21T14:43:53.356Z,62.97
2022-10-21T14:46:21.214Z,63.70
2022-10-21T14:48:50.316Z,63.61
2022-10-21T14:51:21.323Z,63.83
2022-10-21T14:53:57.217Z,63.60
2022-10-21T14:56:30.318Z,63.67
2022-10-21T14:58:59.736Z,63.72
2022-10-21T15:01:27.626Z,63.91
2022-10-21T15:03:57.396Z,63.97
2022-10-21T15:06:30.622Z,64.31
2022-10-21T15:08:57.832Z,64.71
2022-10-21T15:11:29.246Z,64.78
2022-10-21T15:14:06.314Z,64.71
2022-10-21T15:19:13.392Z,64.86
2022-10-21T15:21:48.572Z,65.13
2022-10-21T15:24:43.386Z,64.85
2022-10-21T15:27:42.315Z,65.61
2022-10-21T15:30:20.398Z,65.59
2022-10-21T15:32:48.960Z,65.04
2022-10-21T15:35:23.232Z,65.52
2022-10-21T15:37:54.036Z,65.35
2022-10-21T15:40:21.504Z,65.94
2022-10-21T15:42:48.827Z,65.22
2022-10-21T15:45:18.765Z,66.04
2022-10-21T15:47:52.820Z,65.91
2022-10-21T15:50:22.838Z,65.53
2022-10-21T15:52:50.092Z,66.02
2022-10-21T15:55:17.393Z,66.10
2022-10-21T15:57:44.967Z,65.91
2022-10-21T16:00:20.529Z,66.49
2022-10-21T16:02:48.713Z,66.62
2022-10-21T16:05:16.210Z,66.65
2022-10-21T16:07:43.747Z,66.95
2022-10-21T16:10:29.875Z,66.76
2022-10-21T16:12:57.299Z,66.58
2022-10-21T16:15:24.791Z,67.37
2022-10-21T16:17:54.494Z,67.41
2022-10-21T16:20:25.324Z,67.59
2022-10-21T16:22:52.262Z,68.08
2022-10-21T16:25:19.943Z,67.84
2022-10-21T16:28:02.203Z,67.90
2022-10-21T16:30:37.322Z,67.96
2022-10-21T16:33:04.520Z,68.03
2022-10-21T16:35:31.646Z,67.87
2022-10-21T16:37:58.524Z,67.80
2022-10-21T16:40:28.562Z,67.72
2022-10-21T16:42:55.850Z,67.71
2022-10-21T16:45:28.132Z,68.15
2022-10-21T16:47:57.139Z,68.10
2022-10-21T16:50:28.839Z,68.34
2022-10-21T16:52:55.988Z,68.22
2022-10-21T16:55:22.989Z,68.54
2022-10-21T16:57:49.924Z,68.42
2022-10-21T17:00:18.244Z,68.62
2022-10-21T17:02:48.927Z,68.39
2022-10-21T17:05:17.315Z,68.53
2022-10-21T17:07:44.216Z,68.49
2022-10-21T17:10:11.242Z,68.87
2022-10-21T17:12:38.255Z,69.01
2022-10-21T17:15:05.728Z,68.85
2022-10-21T17:17:32.719Z,68.66
2022-10-21T17:19:59.866Z,68.63
2022-10-21T17:22:26.842Z,69.18
2022-10-21T17:24:53.830Z,69.15
2022-10-21T17:27:21.916Z,69.06
2022-10-21T17:29:49.018Z,69.45
2022-10-21T17:32:16.081Z,69.15
2022-10-21T17:34:43.220Z,68.80
2022-10-21T17:37:12.466Z,69.28
2022-10-21T17:39:39.529Z,69.14
2022-10-21T17:42:06.438Z,69.76
2022-10-21T17:44:33.414Z,69.44
2022-10-21T17:47:00.457Z,69.64
2022-10-21T17:49:27.549Z,69.74
2022-10-21T17:51:54.531Z,69.58
2022-10-21T17:54:24.663Z,69.39
2022-10-21T17:56:57.009Z,69.66
2022-10-21T17:59:24.259Z,69.97
2022-10-21T18:01:51.361Z,69.92
2022-10-21T18:04:18.483Z,69.71
2022-10-21T18:06:45.472Z,69.97
2022-10-21T18:09:12.553Z,69.89
2022-10-21T18:11:39.613Z,70.01
2022-10-21T18:14:06.613Z,70.28
2022-10-21T18:16:33.798Z,70.10
2022-10-21T18:19:02.913Z,70.03
2022-10-21T18:21:31.314Z,70.73
2022-10-21T18:23:59.489Z,70.45
2022-10-21T18:26:31.554Z,70.70
2022-10-21T18:29:01.577Z,70.82
2022-10-21T18:31:31.711Z,70.93
2022-10-21T18:34:00.948Z,70.90
2022-10-21T18:36:28.405Z,70.77
2022-10-21T18:38:57.113Z,70.93
2022-10-21T18:41:24.087Z,70.91
2022-10-21T18:44:05.057Z,70.79
2022-10-21T18:46:32.335Z,71.27
2022-10-21T18:48:59.341Z,70.79
2022-10-21T18:51:26.485Z,70.99
2022-10-21T18:53:53.683Z,70.67
2022-10-21T18:56:22.419Z,70.44
2022-10-21T18:58:50.315Z,70.93
2022-10-21T19:01:19.546Z,70.61
2022-10-21T19:03:47.003Z,70.79
2022-10-21T19:06:34.660Z,70.92
2022-10-21T19:09:06.409Z,70.61
2022-10-21T19:11:33.421Z,70.62
2022-10-21T19:14:00.285Z,70.40
2022-10-21T19:16:27.404Z,70.58
2022-10-21T19:18:55.149Z,70.48
2022-10-21T19:21:23.634Z,70.22
2022-10-21T19:23:51.589Z,70.46
2022-10-21T19:26:22.364Z,70.43
2022-10-21T19:28:50.913Z,70.42
2022-10-21T19:31:21.322Z,70.24
2022-10-21T19:33:48.298Z,70.17
2022-10-21T19:36:15.303Z,69.90
2022-10-21T19:38:45.259Z,69.46
2022-10-21T19:41:16.068Z,69.97
2022-10-21T19:43:43.287Z,70.24
2022-10-21T19:46:14.806Z,70.07
2022-10-21T19:48:41.771Z,69.65
2022-10-21T19:51:15.164Z,70.00
2022-10-21T19:53:44.306Z,70.04
2022-10-21T19:56:12.736Z,69.98
2022-10-21T19:58:39.940Z,69.90
2022-10-21T20:01:09.930Z,69.86
2022-10-21T20:03:38.163Z,69.97
2022-10-21T20:06:10.573Z,69.97
2022-10-21T20:08:40.302Z,69.86
2022-10-21T20:11:11.200Z,69.89
2022-10-21T20:13:38.266Z,69.97
2022-10-21T20:16:05.502Z,69.95
2022-10-21T20:18:32.642Z,69.92
2022-10-21T20:20:59.826Z,69.69
2022-10-21T20:23:30.845Z,69.64
2022-10-21T20:25:59.149Z,69.67
2022-10-21T20:28:27.267Z,69.73
2022-10-21T20:31:01.217Z,69.85
2022-10-21T20:33:30.132Z,68.90
2022-10-21T20:35:57.393Z,69.38
2022-10-21T20:38:24.575Z,69.50
2022-10-21T20:41:07.689Z,70.16
2022-10-21T20:43:36.508Z,70.00
2022-10-21T20:46:09.395Z,70.50
2022-10-21T20:48:39.956Z,70.56
2022-10-21T20:51:12.634Z,70.53
2022-10-21T20:53:40.967Z,70.34
2022-10-21T20:56:08.217Z,70.32
2022-10-21T20:58:39.226Z,70.77
2022-10-21T21:01:14.757Z,71.15
2022-10-21T21:03:43.089Z,71.12
2022-10-21T21:06:11.869Z,71.24
2022-10-21T21:08:48.668Z,71.21
2022-10-21T21:11:21.065Z,71.69
2022-10-21T21:13:48.371Z,72.16
2022-10-21T21:16:18.295Z,72.28
2022-10-21T21:18:56.929Z,72.45
2022-10-21T21:21:25.528Z,72.60
2022-10-21T21:23:53.408Z,72.82
2022-10-21T21:26:21.063Z,72.49
2022-10-21T21:28:48.994Z,72.84
2022-10-21T21:31:16.091Z,72.24
2022-10-21T21:33:43.351Z,72.06
2022-10-21T21:36:10.284Z,71.79
2022-10-21T21:38:37.688Z,71.37
2022-10-21T21:41:08.092Z,72.21
2022-10-21T21:43:36.914Z,71.85
2022-10-21T21:46:04.623Z,72.17
2022-10-21T21:48:32.820Z,72.04
2022-10-21T21:51:12.692Z,72.12
2022-10-21T21:53:39.588Z,72.27
2022-10-21T21:56:07.920Z,72.65
2022-10-21T21:58:35.031Z,72.47
2022-10-21T22:01:13.733Z,72.99
2022-10-21T22:03:41.013Z,73.95
2022-10-21T22:06:08.843Z,73.50
2022-10-21T22:08:39.092Z,73.83
2022-10-21T22:11:08.237Z,74.45
2022-10-21T22:13:36.059Z,74.25
2022-10-21T22:16:03.675Z,74.25
2022-10-21T22:21:07.383Z,74.17
2022-10-21T22:23:34.362Z,74.54
2022-10-21T22:26:01.340Z,75.02
2022-10-21T22:28:28.741Z,75.25
2022-10-21T22:30:58.904Z,75.31
2022-10-21T22:33:27.409Z,75.04
2022-10-21T22:35:54.567Z,75.35
2022-10-21T22:38:22.004Z,76.04
2022-10-21T22:40:56.846Z,76.06
2022-10-21T22:43:25.038Z,76.24
2022-10-21T22:45:52.447Z,76.19
2022-10-21T22:48:20.919Z,76.80
2022-10-21T22:50:47.869Z,76.55
2022-10-21T22:53:16.025Z,76.73
2022-10-21T22:55:43.351Z,76.68
2022-10-21T22:58:20.159Z,76.86
2022-10-21T23:00:51.481Z,76.37
2022-10-21T23:03:19.642Z,76.95
2022-10-21T23:05:47.825Z,77.22
2022-10-21T23:08:15.411Z,77.12
2022-10-21T23:10:42.410Z,77.18
2022-10-21T23:13:09.759Z,77.92
2022-10-21T23:15:37.154Z,77.43
2022-10-21T23:18:04.420Z,77.45
2022-10-21T23:20:31.597Z,77.60
2022-10-21T23:22:59.047Z,77.39
2022-10-21T23:25:26.561Z,77.85
2022-10-21T23:27:54.042Z,78.06
2022-10-21T23:30:21.679Z,77.97
2022-10-21T23:32:48.794Z,77.85
2022-10-21T23:35:15.950Z,77.93
2022-10-21T23:37:43.822Z,78.33
2022-10-21T23:40:12.113Z,78.42
2022-10-21T23:42:42.833Z,78.76
2022-10-21T23:45:11.546Z,78.50
2022-10-21T23:47:39.868Z,78.12
2022-10-21T23:50:08.673Z,78.22
2022-10-21T23:52:36.389Z,78.35
2022-10-21T23:55:06.924Z,78.09
2022-10-21T23:57:33.885Z,78.25
